sensor_id;sensor_type;location;lat;lon;timestamp;P1;durP1;ratioP1;P2;durP2;ratioP2
4122;SDS011;2075;51.062;6.920;2023-10-13T00:01:39;10.30;;;7.43;;
4122;SDS011;2075;51.062;6.920;2023-10-13T00:04:25;15.30;;;8.63;;
4122;SDS011;2075;51.062;6.920;2023-10-13T00:07:11;13.17;;;8.20;;
4122;SDS011;2075;51.062;6.920;2023-10-13T00:09:57;12.73;;;8.10;;
4122;SDS011;2075;51.062;6.920;2023-10-13T00:12:43;13.43;;;8.40;;
4122;SDS011;2075;51.062;6.920;2023-10-13T00:15:33;11.50;;;8.40;;
4122;SDS011;2075;51.062;6.920;2023-10-13T00:18:22;12.53;;;9.10;;
4122;SDS011;2075;51.062;6.920;2023-10-13T00:21:10;17.43;;;8.90;;
4122;SDS011;2075;51.062;6.920;2023-10-13T00:24:01;11.53;;;8.27;;
4122;SDS011;2075;51.062;6.920;2023-10-13T00:26:49;12.23;;;8.43;;
4122;SDS011;2075;51.062;6.920;2023-10-13T00:29:37;14.23;;;8.40;;
4122;SDS011;2075;51.062;6.920;2023-10-13T00:32:23;12.37;;;9.10;;
4122;SDS011;2075;51.062;6.920;2023-10-13T00:35:11;13.00;;;7.93;;
4122;SDS011;2075;51.062;6.920;2023-10-13T00:38:08;23.53;;;8.90;;
4122;SDS011;2075;51.062;6.920;2023-10-13T00:40:58;13.20;;;8.73;;
4122;SDS011;2075;51.062;6.920;2023-10-13T00:43:56;12.27;;;7.70;;
4122;SDS011;2075;51.062;6.920;2023-10-13T00:46:53;10.43;;;8.20;;
4122;SDS011;2075;51.062;6.920;2023-10-13T00:49:39;15.20;;;9.57;;
4122;SDS011;2075;51.062;6.920;2023-10-13T00:52:24;19.30;;;8.30;;
4122;SDS011;2075;51.062;6.920;2023-10-13T00:55:09;12.60;;;8.53;;
4122;SDS011;2075;51.062;6.920;2023-10-13T00:57:58;14.33;;;8.40;;
4122;SDS011;2075;51.062;6.920;2023-10-13T01:00:47;22.00;;;9.80;;
4122;SDS011;2075;51.062;6.920;2023-10-13T01:03:40;19.80;;;9.37;;
4122;SDS011;2075;51.062;6.920;2023-10-13T01:06:24;12.93;;;8.50;;
4122;SDS011;2075;51.062;6.920;2023-10-13T01:09:11;11.90;;;8.40;;
4122;SDS011;2075;51.062;6.920;2023-10-13T01:11:57;14.80;;;8.50;;
4122;SDS011;2075;51.062;6.920;2023-10-13T01:14:45;12.40;;;9.10;;
4122;SDS011;2075;51.062;6.920;2023-10-13T01:17:32;16.73;;;8.37;;
4122;SDS011;2075;51.062;6.920;2023-10-13T01:20:17;23.13;;;9.33;;
4122;SDS011;2075;51.062;6.920;2023-10-13T01:23:10;13.07;;;9.23;;
4122;SDS011;2075;51.062;6.920;2023-10-13T01:26:02;12.77;;;8.67;;
4122;SDS011;2075;51.062;6.920;2023-10-13T01:28:49;11.20;;;8.27;;
4122;SDS011;2075;51.062;6.920;2023-10-13T01:31:35;15.70;;;9.93;;
4122;SDS011;2075;51.062;6.920;2023-10-13T01:34:21;15.50;;;9.73;;
4122;SDS011;2075;51.062;6.920;2023-10-13T01:37:05;12.53;;;8.53;;
4122;SDS011;2075;51.062;6.920;2023-10-13T01:39:52;13.07;;;9.40;;
4122;SDS011;2075;51.062;6.920;2023-10-13T01:42:37;18.67;;;8.40;;
4122;SDS011;2075;51.062;6.920;2023-10-13T01:45:22;15.07;;;8.50;;
4122;SDS011;2075;51.062;6.920;2023-10-13T01:48:12;17.70;;;9.43;;
4122;SDS011;2075;51.062;6.920;2023-10-13T01:51:00;11.10;;;9.37;;
4122;SDS011;2075;51.062;6.920;2023-10-13T01:53:49;17.10;;;8.60;;
4122;SDS011;2075;51.062;6.920;2023-10-13T01:56:41;16.80;;;9.37;;
4122;SDS011;2075;51.062;6.920;2023-10-13T01:59:27;10.70;;;9.50;;
4122;SDS011;2075;51.062;6.920;2023-10-13T02:02:14;16.57;;;9.73;;
4122;SDS011;2075;51.062;6.920;2023-10-13T02:05:00;16.90;;;10.13;;
4122;SDS011;2075;51.062;6.920;2023-10-13T02:07:46;18.90;;;10.20;;
4122;SDS011;2075;51.062;6.920;2023-10-13T02:10:32;14.57;;;9.80;;
4122;SDS011;2075;51.062;6.920;2023-10-13T02:13:20;14.10;;;9.60;;
4122;SDS011;2075;51.062;6.920;2023-10-13T02:16:06;13.60;;;9.50;;
4122;SDS011;2075;51.062;6.920;2023-10-13T02:18:53;18.40;;;9.50;;
4122;SDS011;2075;51.062;6.920;2023-10-13T02:21:38;17.83;;;9.07;;
4122;SDS011;2075;51.062;6.920;2023-10-13T02:24:27;13.93;;;9.47;;
4122;SDS011;2075;51.062;6.920;2023-10-13T02:27:13;17.43;;;9.10;;
4122;SDS011;2075;51.062;6.920;2023-10-13T02:30:00;19.60;;;9.87;;
4122;SDS011;2075;51.062;6.920;2023-10-13T02:32:45;16.63;;;10.07;;
4122;SDS011;2075;51.062;6.920;2023-10-13T02:35:30;18.40;;;9.40;;
4122;SDS011;2075;51.062;6.920;2023-10-13T02:38:34;13.10;;;9.23;;
4122;SDS011;2075;51.062;6.920;2023-10-13T02:41:29;18.17;;;10.80;;
4122;SDS011;2075;51.062;6.920;2023-10-13T02:44:14;11.93;;;9.17;;
4122;SDS011;2075;51.062;6.920;2023-10-13T02:47:05;19.53;;;10.03;;
4122;SDS011;2075;51.062;6.920;2023-10-13T02:49:57;13.77;;;10.40;;
4122;SDS011;2075;51.062;6.920;2023-10-13T02:52:44;17.47;;;9.90;;
4122;SDS011;2075;51.062;6.920;2023-10-13T02:55:33;12.37;;;10.33;;
4122;SDS011;2075;51.062;6.920;2023-10-13T02:58:18;15.37;;;9.87;;
4122;SDS011;2075;51.062;6.920;2023-10-13T03:01:06;16.87;;;10.10;;
4122;SDS011;2075;51.062;6.920;2023-10-13T03:04:02;18.63;;;10.30;;
4122;SDS011;2075;51.062;6.920;2023-10-13T03:06:52;15.93;;;10.23;;
4122;SDS011;2075;51.062;6.920;2023-10-13T03:09:37;15.33;;;10.23;;
4122;SDS011;2075;51.062;6.920;2023-10-13T03:12:29;18.13;;;10.37;;
4122;SDS011;2075;51.062;6.920;2023-10-13T03:15:17;14.50;;;10.10;;
4122;SDS011;2075;51.062;6.920;2023-10-13T03:18:04;14.13;;;9.73;;
4122;SDS011;2075;51.062;6.920;2023-10-13T03:20:51;23.40;;;10.70;;
4122;SDS011;2075;51.062;6.920;2023-10-13T03:23:41;15.40;;;11.07;;
4122;SDS011;2075;51.062;6.920;2023-10-13T03:26:31;19.40;;;11.00;;
4122;SDS011;2075;51.062;6.920;2023-10-13T03:29:21;14.73;;;10.73;;
4122;SDS011;2075;51.062;6.920;2023-10-13T03:32:09;18.73;;;11.30;;
4122;SDS011;2075;51.062;6.920;2023-10-13T03:34:56;15.90;;;10.93;;
4122;SDS011;2075;51.062;6.920;2023-10-13T03:37:56;22.07;;;12.00;;
4122;SDS011;2075;51.062;6.920;2023-10-13T03:40:42;16.67;;;10.63;;
4122;SDS011;2075;51.062;6.920;2023-10-13T03:43:33;20.73;;;10.83;;
4122;SDS011;2075;51.062;6.920;2023-10-13T03:46:28;25.23;;;10.47;;
4122;SDS011;2075;51.062;6.920;2023-10-13T03:49:14;18.20;;;10.70;;
4122;SDS011;2075;51.062;6.920;2023-10-13T03:52:05;12.90;;;10.13;;
4122;SDS011;2075;51.062;6.920;2023-10-13T03:54:57;16.73;;;10.63;;
4122;SDS011;2075;51.062;6.920;2023-10-13T03:57:43;17.23;;;10.50;;
4122;SDS011;2075;51.062;6.920;2023-10-13T04:00:29;23.57;;;10.77;;
4122;SDS011;2075;51.062;6.920;2023-10-13T04:03:16;19.83;;;10.20;;
4122;SDS011;2075;51.062;6.920;2023-10-13T04:06:04;21.53;;;10.50;;
4122;SDS011;2075;51.062;6.920;2023-10-13T04:08:52;20.07;;;10.67;;
4122;SDS011;2075;51.062;6.920;2023-10-13T04:11:52;24.80;;;10.40;;
4122;SDS011;2075;51.062;6.920;2023-10-13T04:14:51;17.73;;;10.63;;
4122;SDS011;2075;51.062;6.920;2023-10-13T04:17:54;15.87;;;10.37;;
4122;SDS011;2075;51.062;6.920;2023-10-13T04:20:41;17.73;;;9.93;;
4122;SDS011;2075;51.062;6.920;2023-10-13T04:23:30;17.67;;;11.40;;
4122;SDS011;2075;51.062;6.920;2023-10-13T04:26:35;18.63;;;10.80;;
4122;SDS011;2075;51.062;6.920;2023-10-13T04:29:27;17.17;;;10.23;;
4122;SDS011;2075;51.062;6.920;2023-10-13T04:32:29;20.87;;;11.37;;
4122;SDS011;2075;51.062;6.920;2023-10-13T04:35:16;15.97;;;11.13;;
4122;SDS011;2075;51.062;6.920;2023-10-13T04:38:02;26.33;;;11.53;;
4122;SDS011;2075;51.062;6.920;2023-10-13T04:41:02;14.30;;;11.47;;
4122;SDS011;2075;51.062;6.920;2023-10-13T04:43:53;19.77;;;11.83;;
4122;SDS011;2075;51.062;6.920;2023-10-13T04:46:50;16.60;;;10.90;;
4122;SDS011;2075;51.062;6.920;2023-10-13T04:49:52;19.30;;;12.00;;
4122;SDS011;2075;51.062;6.920;2023-10-13T04:52:38;17.97;;;10.87;;
4122;SDS011;2075;51.062;6.920;2023-10-13T04:55:48;21.43;;;12.27;;
4122;SDS011;2075;51.062;6.920;2023-10-13T04:58:51;32.63;;;15.00;;
4122;SDS011;2075;51.062;6.920;2023-10-13T05:01:51;21.47;;;13.03;;
4122;SDS011;2075;51.062;6.920;2023-10-13T05:05:00;22.83;;;11.93;;
4122;SDS011;2075;51.062;6.920;2023-10-13T05:08:06;29.33;;;11.87;;
4122;SDS011;2075;51.062;6.920;2023-10-13T05:11:09;19.37;;;10.70;;
4122;SDS011;2075;51.062;6.920;2023-10-13T05:14:14;21.00;;;11.80;;
4122;SDS011;2075;51.062;6.920;2023-10-13T05:17:18;18.43;;;11.83;;
4122;SDS011;2075;51.062;6.920;2023-10-13T05:20:21;21.47;;;12.00;;
4122;SDS011;2075;51.062;6.920;2023-10-13T05:23:24;18.30;;;11.73;;
4122;SDS011;2075;51.062;6.920;2023-10-13T05:26:27;17.63;;;10.90;;
4122;SDS011;2075;51.062;6.920;2023-10-13T05:29:30;16.43;;;11.40;;
4122;SDS011;2075;51.062;6.920;2023-10-13T05:32:35;16.67;;;11.87;;
4122;SDS011;2075;51.062;6.920;2023-10-13T05:35:38;17.70;;;10.80;;
4122;SDS011;2075;51.062;6.920;2023-10-13T05:38:41;18.77;;;11.93;;
4122;SDS011;2075;51.062;6.920;2023-10-13T05:41:44;22.80;;;11.50;;
4122;SDS011;2075;51.062;6.920;2023-10-13T05:44:47;15.50;;;11.57;;
4122;SDS011;2075;51.062;6.920;2023-10-13T05:47:42;13.43;;;11.03;;
4122;SDS011;2075;51.062;6.920;2023-10-13T05:50:44;23.33;;;12.33;;
4122;SDS011;2075;51.062;6.920;2023-10-13T05:54:03;17.30;;;10.63;;
4122;SDS011;2075;51.062;6.920;2023-10-13T05:57:08;26.57;;;12.17;;
4122;SDS011;2075;51.062;6.920;2023-10-13T06:00:19;16.03;;;11.40;;
4122;SDS011;2075;51.062;6.920;2023-10-13T06:03:23;16.60;;;11.10;;
4122;SDS011;2075;51.062;6.920;2023-10-13T06:06:26;20.13;;;11.87;;
4122;SDS011;2075;51.062;6.920;2023-10-13T06:09:29;20.30;;;11.00;;
4122;SDS011;2075;51.062;6.920;2023-10-13T06:12:32;22.07;;;14.40;;
4122;SDS011;2075;51.062;6.920;2023-10-13T06:15:36;27.13;;;12.90;;
4122;SDS011;2075;51.062;6.920;2023-10-13T06:18:42;19.00;;;11.97;;
4122;SDS011;2075;51.062;6.920;2023-10-13T06:21:46;19.40;;;11.37;;
4122;SDS011;2075;51.062;6.920;2023-10-13T06:24:52;21.03;;;11.40;;
4122;SDS011;2075;51.062;6.920;2023-10-13T06:27:55;14.57;;;11.00;;
4122;SDS011;2075;51.062;6.920;2023-10-13T06:30:58;17.07;;;10.07;;
4122;SDS011;2075;51.062;6.920;2023-10-13T06:33:48;12.73;;;9.63;;
4122;SDS011;2075;51.062;6.920;2023-10-13T06:36:35;20.70;;;10.63;;
4122;SDS011;2075;51.062;6.920;2023-10-13T06:39:24;19.60;;;10.63;;
4122;SDS011;2075;51.062;6.920;2023-10-13T06:42:35;14.40;;;10.57;;
4122;SDS011;2075;51.062;6.920;2023-10-13T06:45:26;15.27;;;9.50;;
4122;SDS011;2075;51.062;6.920;2023-10-13T06:48:17;17.40;;;10.07;;
4122;SDS011;2075;51.062;6.920;2023-10-13T06:51:07;17.90;;;9.77;;
4122;SDS011;2075;51.062;6.920;2023-10-13T06:54:02;14.40;;;10.00;;
4122;SDS011;2075;51.062;6.920;2023-10-13T06:56:53;20.60;;;9.70;;
4122;SDS011;2075;51.062;6.920;2023-10-13T06:59:41;22.27;;;9.30;;
4122;SDS011;2075;51.062;6.920;2023-10-13T07:02:27;18.97;;;11.53;;
4122;SDS011;2075;51.062;6.920;2023-10-13T07:05:19;16.90;;;10.50;;
4122;SDS011;2075;51.062;6.920;2023-10-13T07:11:15;18.20;;;11.83;;
4122;SDS011;2075;51.062;6.920;2023-10-13T07:14:07;22.20;;;11.73;;
4122;SDS011;2075;51.062;6.920;2023-10-13T07:17:01;24.50;;;12.53;;
4122;SDS011;2075;51.062;6.920;2023-10-13T07:19:50;19.17;;;11.60;;
4122;SDS011;2075;51.062;6.920;2023-10-13T07:22:53;25.60;;;10.90;;
4122;SDS011;2075;51.062;6.920;2023-10-13T07:25:55;19.27;;;10.40;;
4122;SDS011;2075;51.062;6.920;2023-10-13T07:28:50;14.30;;;8.83;;
4122;SDS011;2075;51.062;6.920;2023-10-13T07:31:44;20.60;;;9.40;;
4122;SDS011;2075;51.062;6.920;2023-10-13T07:34:30;23.13;;;8.70;;
4122;SDS011;2075;51.062;6.920;2023-10-13T07:37:17;22.40;;;11.30;;
4122;SDS011;2075;51.062;6.920;2023-10-13T07:40:04;18.90;;;9.63;;
4122;SDS011;2075;51.062;6.920;2023-10-13T07:43:08;17.80;;;8.57;;
4122;SDS011;2075;51.062;6.920;2023-10-13T07:45:56;12.87;;;7.97;;
4122;SDS011;2075;51.062;6.920;2023-10-13T07:48:56;15.47;;;8.10;;
4122;SDS011;2075;51.062;6.920;2023-10-13T07:51:52;20.00;;;8.40;;
4122;SDS011;2075;51.062;6.920;2023-10-13T07:54:42;20.83;;;7.33;;
4122;SDS011;2075;51.062;6.920;2023-10-13T07:57:40;18.97;;;7.63;;
4122;SDS011;2075;51.062;6.920;2023-10-13T08:00:39;14.73;;;7.47;;
4122;SDS011;2075;51.062;6.920;2023-10-13T08:03:38;19.97;;;6.80;;
4122;SDS011;2075;51.062;6.920;2023-10-13T08:06:30;16.27;;;8.53;;
4122;SDS011;2075;51.062;6.920;2023-10-13T08:09:20;20.70;;;8.00;;
4122;SDS011;2075;51.062;6.920;2023-10-13T08:12:17;15.43;;;7.37;;
4122;SDS011;2075;51.062;6.920;2023-10-13T08:15:06;20.27;;;7.50;;
4122;SDS011;2075;51.062;6.920;2023-10-13T08:18:07;13.70;;;7.03;;
4122;SDS011;2075;51.062;6.920;2023-10-13T08:21:01;22.97;;;7.50;;
4122;SDS011;2075;51.062;6.920;2023-10-13T08:23:50;15.37;;;6.90;;
4122;SDS011;2075;51.062;6.920;2023-10-13T08:26:51;25.93;;;6.80;;
4122;SDS011;2075;51.062;6.920;2023-10-13T08:30:13;15.30;;;6.67;;
4122;SDS011;2075;51.062;6.920;2023-10-13T08:33:15;27.03;;;6.80;;
4122;SDS011;2075;51.062;6.920;2023-10-13T08:36:08;16.60;;;6.40;;
4122;SDS011;2075;51.062;6.920;2023-10-13T08:39:13;22.13;;;6.40;;
4122;SDS011;2075;51.062;6.920;2023-10-13T08:42:30;15.30;;;5.73;;
4122;SDS011;2075;51.062;6.920;2023-10-13T08:45:37;16.03;;;6.13;;
4122;SDS011;2075;51.062;6.920;2023-10-13T08:48:44;17.00;;;6.10;;
4122;SDS011;2075;51.062;6.920;2023-10-13T08:51:35;16.53;;;6.30;;
4122;SDS011;2075;51.062;6.920;2023-10-13T08:54:35;12.77;;;6.17;;
4122;SDS011;2075;51.062;6.920;2023-10-13T08:57:30;15.63;;;6.27;;
4122;SDS011;2075;51.062;6.920;2023-10-13T09:00:18;17.27;;;6.00;;
4122;SDS011;2075;51.062;6.920;2023-10-13T09:03:22;11.80;;;5.63;;
4122;SDS011;2075;51.062;6.920;2023-10-13T09:06:27;14.93;;;6.20;;
4122;SDS011;2075;51.062;6.920;2023-10-13T09:09:12;14.70;;;5.63;;
4122;SDS011;2075;51.062;6.920;2023-10-13T09:12:19;19.33;;;5.90;;
4122;SDS011;2075;51.062;6.920;2023-10-13T09:15:11;13.70;;;6.73;;
4122;SDS011;2075;51.062;6.920;2023-10-13T09:18:03;17.80;;;5.37;;
4122;SDS011;2075;51.062;6.920;2023-10-13T09:20:59;14.30;;;5.57;;
4122;SDS011;2075;51.062;6.920;2023-10-13T09:24:05;16.17;;;5.77;;
4122;SDS011;2075;51.062;6.920;2023-10-13T09:27:14;11.87;;;5.40;;
4122;SDS011;2075;51.062;6.920;2023-10-13T09:30:02;13.73;;;6.50;;
4122;SDS011;2075;51.062;6.920;2023-10-13T09:32:58;27.17;;;6.00;;
4122;SDS011;2075;51.062;6.920;2023-10-13T09:35:49;14.77;;;6.53;;
4122;SDS011;2075;51.062;6.920;2023-10-13T09:38:35;10.73;;;6.33;;
4122;SDS011;2075;51.062;6.920;2023-10-13T09:41:27;12.33;;;6.53;;
4122;SDS011;2075;51.062;6.920;2023-10-13T09:44:16;12.23;;;6.27;;
4122;SDS011;2075;51.062;6.920;2023-10-13T09:47:04;13.40;;;6.33;;
4122;SDS011;2075;51.062;6.920;2023-10-13T09:50:02;11.50;;;6.23;;
4122;SDS011;2075;51.062;6.920;2023-10-13T09:52:58;10.50;;;6.00;;
4122;SDS011;2075;51.062;6.920;2023-10-13T09:55:51;15.37;;;6.07;;
4122;SDS011;2075;51.062;6.920;2023-10-13T09:58:49;12.53;;;6.67;;
4122;SDS011;2075;51.062;6.920;2023-10-13T10:01:42;11.63;;;6.77;;
4122;SDS011;2075;51.062;6.920;2023-10-13T10:04:34;10.80;;;6.07;;
4122;SDS011;2075;51.062;6.920;2023-10-13T10:07:31;12.43;;;7.40;;
4122;SDS011;2075;51.062;6.920;2023-10-13T10:10:20;16.90;;;6.17;;
4122;SDS011;2075;51.062;6.920;2023-10-13T10:13:11;18.03;;;5.87;;
4122;SDS011;2075;51.062;6.920;2023-10-13T10:16:10;13.40;;;6.80;;
4122;SDS011;2075;51.062;6.920;2023-10-13T10:19:01;14.77;;;7.00;;
4122;SDS011;2075;51.062;6.920;2023-10-13T10:21:56;12.10;;;7.07;;
4122;SDS011;2075;51.062;6.920;2023-10-13T10:24:55;10.47;;;6.30;;
4122;SDS011;2075;51.062;6.920;2023-10-13T10:27:43;15.27;;;6.70;;
4122;SDS011;2075;51.062;6.920;2023-10-13T10:30:42;17.00;;;6.40;;
4122;SDS011;2075;51.062;6.920;2023-10-13T10:33:31;16.33;;;6.33;;
4122;SDS011;2075;51.062;6.920;2023-10-13T10:36:29;16.63;;;6.90;;
4122;SDS011;2075;51.062;6.920;2023-10-13T10:39:17;13.23;;;6.03;;
4122;SDS011;2075;51.062;6.920;2023-10-13T10:42:12;14.90;;;6.40;;
4122;SDS011;2075;51.062;6.920;2023-10-13T10:45:13;13.17;;;6.77;;
4122;SDS011;2075;51.062;6.920;2023-10-13T10:48:06;11.27;;;6.30;;
4122;SDS011;2075;51.062;6.920;2023-10-13T10:51:03;11.87;;;6.50;;
4122;SDS011;2075;51.062;6.920;2023-10-13T10:53:58;11.80;;;7.27;;
4122;SDS011;2075;51.062;6.920;2023-10-13T10:56:58;13.50;;;7.13;;
4122;SDS011;2075;51.062;6.920;2023-10-13T11:00:01;17.73;;;7.07;;
4122;SDS011;2075;51.062;6.920;2023-10-13T11:02:55;13.07;;;6.50;;
4122;SDS011;2075;51.062;6.920;2023-10-13T11:05:45;21.33;;;5.93;;
4122;SDS011;2075;51.062;6.920;2023-10-13T11:08:37;15.90;;;6.60;;
4122;SDS011;2075;51.062;6.920;2023-10-13T11:11:28;12.03;;;7.80;;
4122;SDS011;2075;51.062;6.920;2023-10-13T11:14:28;13.17;;;7.90;;
4122;SDS011;2075;51.062;6.920;2023-10-13T11:17:18;15.40;;;6.93;;
4122;SDS011;2075;51.062;6.920;2023-10-13T11:20:11;20.63;;;7.57;;
4122;SDS011;2075;51.062;6.920;2023-10-13T11:23:10;16.27;;;7.37;;
4122;SDS011;2075;51.062;6.920;2023-10-13T11:26:01;22.23;;;6.67;;
4122;SDS011;2075;51.062;6.920;2023-10-13T11:28:49;12.30;;;6.90;;
4122;SDS011;2075;51.062;6.920;2023-10-13T11:31:35;12.27;;;6.50;;
4122;SDS011;2075;51.062;6.920;2023-10-13T11:34:23;11.97;;;6.77;;
4122;SDS011;2075;51.062;6.920;2023-10-13T11:37:09;9.93;;;6.30;;
4122;SDS011;2075;51.062;6.920;2023-10-13T11:40:22;13.50;;;6.00;;
4122;SDS011;2075;51.062;6.920;2023-10-13T11:43:29;11.60;;;6.33;;
4122;SDS011;2075;51.062;6.920;2023-10-13T11:46:21;15.53;;;7.80;;
4122;SDS011;2075;51.062;6.920;2023-10-13T11:49:25;12.90;;;5.90;;
4122;SDS011;2075;51.062;6.920;2023-10-13T11:52:21;14.83;;;6.70;;
4122;SDS011;2075;51.062;6.920;2023-10-13T11:55:10;16.43;;;6.60;;
4122;SDS011;2075;51.062;6.920;2023-10-13T11:57:58;18.63;;;6.53;;
4122;SDS011;2075;51.062;6.920;2023-10-13T12:00:46;17.50;;;6.77;;
4122;SDS011;2075;51.062;6.920;2023-10-13T12:03:46;17.90;;;6.20;;
4122;SDS011;2075;51.062;6.920;2023-10-13T12:06:50;10.90;;;5.63;;
4122;SDS011;2075;51.062;6.920;2023-10-13T12:09:48;19.23;;;6.73;;
4122;SDS011;2075;51.062;6.920;2023-10-13T12:12:47;15.20;;;6.20;;
4122;SDS011;2075;51.062;6.920;2023-10-13T12:15:39;18.70;;;5.63;;
4122;SDS011;2075;51.062;6.920;2023-10-13T12:18:39;16.30;;;6.10;;
4122;SDS011;2075;51.062;6.920;2023-10-13T12:21:29;19.80;;;6.57;;
4122;SDS011;2075;51.062;6.920;2023-10-13T12:24:16;14.20;;;6.30;;
4122;SDS011;2075;51.062;6.920;2023-10-13T12:27:23;21.80;;;5.73;;
4122;SDS011;2075;51.062;6.920;2023-10-13T12:30:19;15.27;;;6.50;;
4122;SDS011;2075;51.062;6.920;2023-10-13T12:33:19;20.37;;;7.10;;
4122;SDS011;2075;51.062;6.920;2023-10-13T12:36:22;19.60;;;6.07;;
4122;SDS011;2075;51.062;6.920;2023-10-13T12:39:25;15.47;;;5.97;;
4122;SDS011;2075;51.062;6.920;2023-10-13T12:42:29;9.70;;;5.40;;
4122;SDS011;2075;51.062;6.920;2023-10-13T12:45:32;17.27;;;5.97;;
4122;SDS011;2075;51.062;6.920;2023-10-13T12:48:36;21.97;;;6.13;;
4122;SDS011;2075;51.062;6.920;2023-10-13T12:51:52;13.13;;;5.70;;
4122;SDS011;2075;51.062;6.920;2023-10-13T12:54:38;18.13;;;5.83;;
4122;SDS011;2075;51.062;6.920;2023-10-13T12:57:26;13.70;;;6.10;;
4122;SDS011;2075;51.062;6.920;2023-10-13T13:00:14;15.97;;;5.57;;
4122;SDS011;2075;51.062;6.920;2023-10-13T13:03:08;11.07;;;5.90;;
4122;SDS011;2075;51.062;6.920;2023-10-13T13:05:58;11.90;;;6.13;;
4122;SDS011;2075;51.062;6.920;2023-10-13T13:08:53;15.07;;;5.93;;
4122;SDS011;2075;51.062;6.920;2023-10-13T13:11:42;16.33;;;6.70;;
4122;SDS011;2075;51.062;6.920;2023-10-13T13:14:32;19.70;;;6.10;;
4122;SDS011;2075;51.062;6.920;2023-10-13T13:17:19;19.00;;;6.90;;
4122;SDS011;2075;51.062;6.920;2023-10-13T13:20:06;19.60;;;6.60;;
4122;SDS011;2075;51.062;6.920;2023-10-13T13:23:37;15.20;;;5.90;;
4122;SDS011;2075;51.062;6.920;2023-10-13T13:26:26;20.13;;;6.07;;
4122;SDS011;2075;51.062;6.920;2023-10-13T13:29:15;17.10;;;5.57;;
4122;SDS011;2075;51.062;6.920;2023-10-13T13:32:04;18.27;;;6.03;;
4122;SDS011;2075;51.062;6.920;2023-10-13T13:35:01;14.37;;;6.60;;
4122;SDS011;2075;51.062;6.920;2023-10-13T13:37:49;17.90;;;6.87;;
4122;SDS011;2075;51.062;6.920;2023-10-13T13:40:37;19.03;;;5.90;;
4122;SDS011;2075;51.062;6.920;2023-10-13T13:43:26;21.73;;;6.90;;
4122;SDS011;2075;51.062;6.920;2023-10-13T13:46:35;21.97;;;6.17;;
4122;SDS011;2075;51.062;6.920;2023-10-13T13:49:26;19.50;;;5.93;;
4122;SDS011;2075;51.062;6.920;2023-10-13T13:52:23;20.50;;;6.40;;
4122;SDS011;2075;51.062;6.920;2023-10-13T13:55:18;18.80;;;5.90;;
4122;SDS011;2075;51.062;6.920;2023-10-13T13:58:07;25.20;;;5.83;;
4122;SDS011;2075;51.062;6.920;2023-10-13T14:01:00;14.83;;;5.53;;
4122;SDS011;2075;51.062;6.920;2023-10-13T14:03:57;20.60;;;6.00;;
4122;SDS011;2075;51.062;6.920;2023-10-13T14:06:47;13.03;;;5.80;;
4122;SDS011;2075;51.062;6.920;2023-10-13T14:09:34;12.60;;;5.90;;
4122;SDS011;2075;51.062;6.920;2023-10-13T14:12:24;14.23;;;5.90;;
4122;SDS011;2075;51.062;6.920;2023-10-13T14:15:25;25.63;;;6.27;;
4122;SDS011;2075;51.062;6.920;2023-10-13T14:18:14;24.80;;;6.37;;
4122;SDS011;2075;51.062;6.920;2023-10-13T14:21:01;19.27;;;6.23;;
4122;SDS011;2075;51.062;6.920;2023-10-13T14:23:50;19.63;;;6.73;;
4122;SDS011;2075;51.062;6.920;2023-10-13T14:26:42;20.73;;;6.60;;
4122;SDS011;2075;51.062;6.920;2023-10-13T14:29:30;18.87;;;6.53;;
4122;SDS011;2075;51.062;6.920;2023-10-13T14:32:18;22.23;;;6.60;;
4122;SDS011;2075;51.062;6.920;2023-10-13T14:35:11;14.80;;;6.57;;
4122;SDS011;2075;51.062;6.920;2023-10-13T14:38:00;24.57;;;7.10;;
4122;SDS011;2075;51.062;6.920;2023-10-13T14:40:47;16.70;;;6.03;;
4122;SDS011;2075;51.062;6.920;2023-10-13T14:43:41;16.30;;;6.10;;
4122;SDS011;2075;51.062;6.920;2023-10-13T14:46:31;15.63;;;6.03;;
4122;SDS011;2075;51.062;6.920;2023-10-13T14:49:20;17.85;;;6.80;;
4122;SDS011;2075;51.062;6.920;2023-10-13T14:52:08;14.43;;;6.10;;
4122;SDS011;2075;51.062;6.920;2023-10-13T14:54:54;14.70;;;5.70;;
4122;SDS011;2075;51.062;6.920;2023-10-13T14:57:40;15.02;;;6.50;;
4122;SDS011;2075;51.062;6.920;2023-10-13T15:00:27;16.10;;;5.63;;
4122;SDS011;2075;51.062;6.920;2023-10-13T15:03:16;15.63;;;6.40;;
4122;SDS011;2075;51.062;6.920;2023-10-13T15:06:02;13.47;;;5.60;;
4122;SDS011;2075;51.062;6.920;2023-10-13T15:08:49;17.90;;;6.23;;
4122;SDS011;2075;51.062;6.920;2023-10-13T15:11:38;18.67;;;6.93;;
4122;SDS011;2075;51.062;6.920;2023-10-13T15:14:29;13.90;;;5.77;;
4122;SDS011;2075;51.062;6.920;2023-10-13T15:17:17;13.20;;;5.53;;
4122;SDS011;2075;51.062;6.920;2023-10-13T15:20:08;15.23;;;5.77;;
4122;SDS011;2075;51.062;6.920;2023-10-13T15:22:56;17.83;;;6.00;;
4122;SDS011;2075;51.062;6.920;2023-10-13T15:25:46;17.10;;;5.47;;
4122;SDS011;2075;51.062;6.920;2023-10-13T15:28:35;17.03;;;5.40;;
4122;SDS011;2075;51.062;6.920;2023-10-13T15:31:22;19.97;;;6.20;;
4122;SDS011;2075;51.062;6.920;2023-10-13T15:34:21;17.20;;;6.07;;
4122;SDS011;2075;51.062;6.920;2023-10-13T15:37:07;19.73;;;5.90;;
4122;SDS011;2075;51.062;6.920;2023-10-13T15:39:56;12.73;;;5.40;;
4122;SDS011;2075;51.062;6.920;2023-10-13T15:42:45;11.00;;;6.13;;
4122;SDS011;2075;51.062;6.920;2023-10-13T15:45:32;12.70;;;5.80;;
4122;SDS011;2075;51.062;6.920;2023-10-13T15:48:23;17.03;;;6.00;;
4122;SDS011;2075;51.062;6.920;2023-10-13T15:51:10;18.60;;;6.10;;
4122;SDS011;2075;51.062;6.920;2023-10-13T15:53:58;12.30;;;5.70;;
4122;SDS011;2075;51.062;6.920;2023-10-13T15:56:45;14.40;;;5.43;;
4122;SDS011;2075;51.062;6.920;2023-10-13T15:59:36;9.18;;;5.90;;
4122;SDS011;2075;51.062;6.920;2023-10-13T16:02:23;15.00;;;5.13;;
4122;SDS011;2075;51.062;6.920;2023-10-13T16:05:10;11.80;;;5.13;;
4122;SDS011;2075;51.062;6.920;2023-10-13T16:07:58;15.60;;;5.83;;
4122;SDS011;2075;51.062;6.920;2023-10-13T16:10:44;11.77;;;5.80;;
4122;SDS011;2075;51.062;6.920;2023-10-13T16:13:30;9.67;;;5.33;;
4122;SDS011;2075;51.062;6.920;2023-10-13T16:16:19;12.43;;;5.20;;
4122;SDS011;2075;51.062;6.920;2023-10-13T16:19:06;12.00;;;5.17;;
4122;SDS011;2075;51.062;6.920;2023-10-13T16:21:53;14.03;;;6.90;;
4122;SDS011;2075;51.062;6.920;2023-10-13T16:24:41;15.30;;;5.63;;
4122;SDS011;2075;51.062;6.920;2023-10-13T16:27:31;8.67;;;5.20;;
4122;SDS011;2075;51.062;6.920;2023-10-13T16:30:22;16.33;;;5.83;;
4122;SDS011;2075;51.062;6.920;2023-10-13T16:33:12;10.50;;;5.03;;
4122;SDS011;2075;51.062;6.920;2023-10-13T16:35:58;8.90;;;5.07;;
4122;SDS011;2075;51.062;6.920;2023-10-13T16:38:45;16.40;;;6.00;;
4122;SDS011;2075;51.062;6.920;2023-10-13T16:41:31;12.20;;;5.40;;
4122;SDS011;2075;51.062;6.920;2023-10-13T16:44:17;13.73;;;6.20;;
4122;SDS011;2075;51.062;6.920;2023-10-13T16:47:04;11.93;;;5.70;;
4122;SDS011;2075;51.062;6.920;2023-10-13T16:49:50;12.67;;;6.40;;
4122;SDS011;2075;51.062;6.920;2023-10-13T16:52:36;10.70;;;5.53;;
4122;SDS011;2075;51.062;6.920;2023-10-13T16:55:22;10.07;;;5.53;;
4122;SDS011;2075;51.062;6.920;2023-10-13T16:58:08;11.00;;;5.47;;
4122;SDS011;2075;51.062;6.920;2023-10-13T17:00:55;9.30;;;6.23;;
4122;SDS011;2075;51.062;6.920;2023-10-13T17:03:41;13.00;;;5.60;;
4122;SDS011;2075;51.062;6.920;2023-10-13T17:06:32;13.60;;;6.37;;
4122;SDS011;2075;51.062;6.920;2023-10-13T17:09:19;19.37;;;6.47;;
4122;SDS011;2075;51.062;6.920;2023-10-13T17:12:06;12.43;;;5.70;;
4122;SDS011;2075;51.062;6.920;2023-10-13T17:14:54;9.80;;;6.10;;
4122;SDS011;2075;51.062;6.920;2023-10-13T17:17:41;6.40;;;5.20;;
4122;SDS011;2075;51.062;6.920;2023-10-13T17:20:28;16.60;;;5.10;;
4122;SDS011;2075;51.062;6.920;2023-10-13T17:23:18;11.53;;;6.63;;
4122;SDS011;2075;51.062;6.920;2023-10-13T17:26:05;9.27;;;5.73;;
4122;SDS011;2075;51.062;6.920;2023-10-13T17:28:51;10.27;;;6.40;;
4122;SDS011;2075;51.062;6.920;2023-10-13T17:31:39;13.33;;;5.27;;
4122;SDS011;2075;51.062;6.920;2023-10-13T17:34:24;10.80;;;6.40;;
4122;SDS011;2075;51.062;6.920;2023-10-13T17:37:12;13.27;;;5.50;;